Time;durP1;ratioP1;P1;durP2;ratioP2;P2;SDS_P1;SDS_P2;PMS_P1;PMS_P2;Temp;Humidity;BMP_temperature;BMP_pressure;BME280_temperature;BME280_humidity;BME280_pressure;Samples;Min_cycle;Max_cycle;Signal;HPM_P1;HPM_P2
2023/12/05 00:00:43;;;;;;;43.42;19.55;;;0.20;99.90;;;;;;4962557;28;20034;-78
2023/12/05 00:03:08;;;;;;;45.42;18.70;;;0.20;99.90;;;;;;4944509;28;20388;-81
2023/12/05 00:05:34;;;;;;;47.97;19.45;;;0.20;99.90;;;;;;4944835;28;20031;-79
2023/12/05 00:08:00;;;;;;;49.78;21.73;;;0.10;99.90;;;;;;4944239;29;20047;-80
2023/12/05 00:10:25;;;;;;;42.53;20.10;;;0.00;99.90;;;;;;4943917;29;20034;-81
2023/12/05 00:12:51;;;;;;;44.53;18.00;;;0.00;99.90;;;;;;4944546;29;20031;-81
2023/12/05 00:15:17;;;;;;;38.95;16.30;;;0.10;99.90;;;;;;4947637;28;20034;-82
2023/12/05 00:17:42;;;;;;;42.63;17.08;;;-0.10;99.90;;;;;;4964064;28;20031;-82
2023/12/05 00:20:08;;;;;;;39.17;16.50;;;0.30;99.90;;;;;;4971763;28;20377;-81
2023/12/05 00:22:36;;;;;;;36.70;17.35;;;0.00;99.90;;;;;;4954610;28;20061;-82
2023/12/05 00:25:02;;;;;;;41.15;16.05;;;0.00;99.90;;;;;;4971280;28;20023;-82
2023/12/05 00:27:28;;;;;;;35.95;17.10;;;0.10;99.90;;;;;;4970225;28;20031;-81
2023/12/05 00:29:54;;;;;;;34.42;14.88;;;0.20;99.90;;;;;;4951928;29;20023;-82
2023/12/05 00:32:20;;;;;;;35.50;15.70;;;0.10;99.90;;;;;;4951553;28;20039;-82
2023/12/05 00:34:46;;;;;;;34.08;15.90;;;0.00;99.90;;;;;;4967056;28;20027;-82
2023/12/05 00:37:11;;;;;;;28.45;14.82;;;0.20;99.90;;;;;;4957959;28;20023;-81
2023/12/05 00:39:37;;;;;;;32.88;14.43;;;0.00;99.90;;;;;;4962186;29;20110;-81
2023/12/05 00:42:03;;;;;;;35.45;15.50;;;-0.10;99.90;;;;;;4958059;29;20404;-79
2023/12/05 00:44:29;;;;;;;31.70;15.27;;;-0.10;99.90;;;;;;4962545;28;20099;-81
2023/12/05 00:46:54;;;;;;;35.80;15.30;;;-0.10;99.90;;;;;;4944025;29;20019;-81
2023/12/05 00:49:20;;;;;;;33.88;14.77;;;0.00;99.90;;;;;;4943598;28;20034;-81
2023/12/05 00:51:46;;;;;;;37.00;13.77;;;-0.10;99.90;;;;;;4959338;28;20074;-78
2023/12/05 00:54:11;;;;;;;33.70;15.18;;;-0.20;99.90;;;;;;4960956;28;20047;-80
2023/12/05 00:56:37;;;;;;;32.47;14.00;;;-0.10;99.90;;;;;;4965004;28;20038;-79
2023/12/05 00:59:04;;;;;;;27.90;12.13;;;-0.10;99.90;;;;;;4970687;28;20575;-78
2023/12/05 01:01:30;;;;;;;26.92;12.38;;;-0.10;99.90;;;;;;4962797;28;20031;-82
2023/12/05 01:03:56;;;;;;;28.92;13.73;;;-0.10;99.90;;;;;;4944753;28;20358;-81
2023/12/05 01:06:23;;;;;;;26.85;11.75;;;0.10;99.90;;;;;;4962056;28;20066;-79
2023/12/05 01:08:49;;;;;;;20.15;10.57;;;0.10;99.90;;;;;;4962069;28;20396;-80
2023/12/05 01:11:15;;;;;;;22.63;11.57;;;0.20;99.90;;;;;;4946531;29;20031;-81
2023/12/05 01:13:43;;;;;;;24.10;11.18;;;0.70;99.90;;;;;;4947265;28;20090;-82
2023/12/05 01:16:09;;;;;;;24.70;10.52;;;0.30;99.90;;;;;;4947103;28;20051;-80
2023/12/05 01:18:36;;;;;;;20.00;9.02;;;0.40;99.90;;;;;;4947491;29;20050;-82
2023/12/05 01:21:01;;;;;;;14.27;6.80;;;0.40;99.90;;;;;;4947350;29;20023;-79
2023/12/05 01:23:27;;;;;;;12.52;7.10;;;0.40;99.90;;;;;;4946434;29;20032;-82
2023/12/05 01:25:53;;;;;;;18.35;8.70;;;0.50;99.90;;;;;;4944479;29;20100;-81
2023/12/05 01:28:18;;;;;;;24.85;10.93;;;0.70;99.90;;;;;;4958918;28;20024;-78
2023/12/05 01:30:44;;;;;;;23.55;10.95;;;0.70;99.90;;;;;;4939287;28;20452;-80
2023/12/05 01:33:09;;;;;;;11.40;6.22;;;0.60;99.90;;;;;;4956600;28;20436;-79
2023/12/05 01:35:35;;;;;;;10.40;5.47;;;0.60;99.90;;;;;;4955602;28;20059;-79
2023/12/05 01:38:01;;;;;;;15.25;7.25;;;0.70;99.90;;;;;;4938231;29;20062;-80
2023/12/05 01:40:26;;;;;;;13.80;7.47;;;0.70;99.90;;;;;;4955137;28;20498;-79
2023/12/05 01:42:52;;;;;;;3.63;2.53;;;0.60;99.90;;;;;;4938059;28;20134;-79
2023/12/05 01:45:18;;;;;;;5.90;3.30;;;0.70;99.90;;;;;;4938313;28;20408;-78
2023/12/05 01:47:44;;;;;;;3.55;2.30;;;0.80;99.90;;;;;;4937890;28;20038;-78
2023/12/05 01:50:15;;;;;;;7.28;2.13;;;1.00;99.90;;;;;;4938019;28;20026;-79
2023/12/05 01:52:47;;;;;;;6.57;3.60;;;1.60;99.90;;;;;;4949127;29;20142;-79
2023/12/05 01:55:15;;;;;;;5.80;3.03;;;1.40;99.90;;;;;;4955327;28;20027;-78
2023/12/05 01:57:41;;;;;;;7.90;2.42;;;1.50;99.90;;;;;;4956615;28;20031;-79
2023/12/05 02:00:08;;;;;;;2.78;1.30;;;1.60;99.90;;;;;;4955546;28;20023;-80
2023/12/05 02:02:35;;;;;;;2.75;2.05;;;1.80;99.90;;;;;;4954254;28;20042;-79
2023/12/05 02:05:03;;;;;;;2.83;0.70;;;2.10;99.90;;;;;;4953777;28;20495;-79
2023/12/05 02:07:29;;;;;;;1.00;0.80;;;2.80;99.90;;;;;;4955126;28;20078;-79
2023/12/05 02:09:55;;;;;;;0.75;0.40;;;3.30;99.90;;;;;;4954021;28;20584;-79
2023/12/05 02:12:21;;;;;;;1.75;1.08;;;3.50;99.90;;;;;;4969776;28;20130;-78
2023/12/05 02:14:47;;;;;;;1.20;0.90;;;3.60;99.90;;;;;;4955015;28;20094;-78
2023/12/05 02:17:21;;;;;;;1.70;1.60;;;3.60;99.90;;;;;;4955055;28;20031;-77
2023/12/05 02:20:06;;;;;;;4.97;2.78;;;3.60;99.90;;;;;;4955048;28;20027;-78
2023/12/05 02:23:03;;;;;;;4.15;2.22;;;3.70;99.90;;;;;;4956824;28;20428;-77
2023/12/05 02:25:40;;;;;;;1.92;1.70;;;4.00;99.90;;;;;;4958734;28;20027;-78
2023/12/05 02:28:06;;;;;;;7.15;2.65;;;4.30;99.90;;;;;;4957401;29;20030;-77
2023/12/05 02:30:32;;;;;;;8.68;2.30;;;4.50;99.90;;;;;;4957196;28;20042;-78
2023/12/05 02:32:58;;;;;;;2.70;2.45;;;4.40;99.90;;;;;;4958574;28;20035;-77
2023/12/05 02:35:24;;;;;;;4.80;2.58;;;4.40;99.90;;;;;;4973307;28;20035;-78
2023/12/05 02:37:55;;;;;;;2.80;1.63;;;4.30;99.90;;;;;;4958463;28;20050;-77
2023/12/05 02:40:37;;;;;;;2.95;0.85;;;4.30;99.90;;;;;;4958435;28;20020;-78
2023/12/05 02:43:08;;;;;;;1.50;0.60;;;4.30;99.90;;;;;;4958180;28;20099;-77
2023/12/05 02:45:38;;;;;;;0.63;0.40;;;4.30;99.90;;;;;;4957217;28;20023;-77
2023/12/05 02:48:04;;;;;;;2.35;0.57;;;4.30;99.90;;;;;;4957003;28;20031;-78
2023/12/05 02:50:30;;;;;;;2.53;0.47;;;4.10;99.90;;;;;;4958131;28;20481;-78
2023/12/05 02:52:56;;;;;;;2.35;0.45;;;3.90;99.90;;;;;;4956619;28;20098;-77
2023/12/05 02:55:21;;;;;;;0.98;0.40;;;3.80;99.90;;;;;;4958092;28;20023;-78
2023/12/05 02:57:47;;;;;;;0.43;0.32;;;3.70;99.90;;;;;;4956622;28;20034;-78
2023/12/05 03:00:13;;;;;;;2.50;0.43;;;3.60;99.90;;;;;;4956813;28;20473;-78
2023/12/05 03:02:39;;;;;;;2.85;0.45;;;3.50;99.90;;;;;;4956911;28;20054;-78
2023/12/05 03:05:05;;;;;;;0.38;0.20;;;3.60;99.90;;;;;;4957968;28;20055;-78
2023/12/05 03:07:31;;;;;;;1.10;0.60;;;3.70;99.90;;;;;;4956582;28;20031;-78
2023/12/05 03:09:57;;;;;;;2.22;1.00;;;3.80;99.90;;;;;;4958081;29;20027;-78
2023/12/05 03:12:22;;;;;;;3.92;1.02;;;4.00;99.90;;;;;;4956085;28;20043;-79
2023/12/05 03:14:48;;;;;;;0.73;0.70;;;4.20;99.90;;;;;;4972562;28;20499;-78
2023/12/05 03:17:13;;;;;;;0.80;0.80;;;4.20;99.90;;;;;;4955875;28;20550;-78
2023/12/05 03:19:41;;;;;;;0.77;0.60;;;4.20;99.90;;;;;;4957761;28;20027;-78
2023/12/05 03:22:06;;;;;;;3.00;0.60;;;4.20;99.90;;;;;;4972768;28;20019;-78
2023/12/05 03:24:32;;;;;;;3.20;1.40;;;4.10;99.90;;;;;;4957709;28;20158;-78
2023/12/05 03:26:57;;;;;;;5.97;2.17;;;4.20;99.90;;;;;;4957609;28;20441;-78
2023/12/05 03:29:23;;;;;;;2.70;1.30;;;4.30;99.90;;;;;;4957910;28;20437;-78
2023/12/05 03:31:49;;;;;;;2.25;1.35;;;4.60;99.90;;;;;;4956047;28;20507;-78
2023/12/05 03:34:14;;;;;;;2.08;1.10;;;4.60;99.90;;;;;;4957577;28;20027;-78
2023/12/05 03:36:40;;;;;;;0.98;0.98;;;4.60;99.90;;;;;;4972331;28;20114;-76
2023/12/05 03:39:05;;;;;;;1.23;0.77;;;4.60;99.90;;;;;;4972308;28;20082;-78
2023/12/05 03:41:31;;;;;;;3.40;0.60;;;4.80;99.90;;;;;;4957687;28;20027;-79
2023/12/05 03:43:57;;;;;;;0.80;0.70;;;5.00;99.90;;;;;;4956319;28;20028;-78
2023/12/05 03:46:22;;;;;;;0.93;0.60;;;5.10;99.90;;;;;;4957685;28;20027;-78
2023/12/05 03:48:48;;;;;;;4.28;1.35;;;5.00;99.90;;;;;;4956623;28;20503;-78
2023/12/05 03:51:14;;;;;;;5.50;2.15;;;5.00;99.90;;;;;;4971836;28;20059;-78
2023/12/05 03:53:39;;;;;;;3.60;1.33;;;5.10;99.90;;;;;;4940128;29;20433;-78
2023/12/05 03:56:05;;;;;;;9.27;2.22;;;5.20;99.90;;;;;;4939936;28;20507;-78
2023/12/05 03:58:31;;;;;;;4.28;2.85;;;5.30;99.90;;;;;;4939821;29;20024;-78
2023/12/05 04:00:57;;;;;;;2.55;1.20;;;5.30;99.90;;;;;;4957172;28;20032;-78
2023/12/05 04:03:22;;;;;;;3.80;1.90;;;5.30;99.90;;;;;;4939933;28;20031;-78
2023/12/05 04:05:48;;;;;;;4.88;1.30;;;5.10;99.90;;;;;;4940411;29;20077;-78
2023/12/05 04:08:13;;;;;;;2.05;0.88;;;5.10;99.90;;;;;;4940291;29;20552;-76
2023/12/05 04:10:39;;;;;;;4.57;0.82;;;4.90;99.90;;;;;;4956653;28;20046;-76
2023/12/05 04:13:05;;;;;;;0.93;0.38;;;4.70;99.90;;;;;;4956541;28;20038;-76
2023/12/05 04:15:30;;;;;;;3.22;0.47;;;4.40;99.90;;;;;;4956295;28;20102;-77
2023/12/05 04:17:56;;;;;;;1.50;0.47;;;4.20;99.90;;;;;;4939245;29;20081;-78
2023/12/05 04:20:22;;;;;;;4.75;0.38;;;4.00;99.90;;;;;;4956366;28;20035;-78
2023/12/05 04:22:48;;;;;;;4.10;0.73;;;3.80;99.90;;;;;;4956455;29;20027;-78
2023/12/05 04:25:15;;;;;;;2.03;0.65;;;3.90;99.90;;;;;;4956554;28;20042;-77
2023/12/05 04:27:41;;;;;;;0.88;0.50;;;3.70;99.90;;;;;;4956370;28;20019;-77
2023/12/05 04:30:07;;;;;;;3.00;0.50;;;3.70;99.90;;;;;;4939040;29;20030;-77
2023/12/05 04:32:33;;;;;;;1.65;0.50;;;3.70;99.90;;;;;;4938810;29;20043;-78
2023/12/05 04:34:58;;;;;;;0.85;0.52;;;3.70;99.90;;;;;;4956136;28;20023;-77
2023/12/05 04:37:24;;;;;;;1.80;0.40;;;3.80;99.90;;;;;;4956195;29;20079;-78
2023/12/05 04:39:49;;;;;;;1.70;0.60;;;3.90;99.90;;;;;;4938961;28;20070;-76
2023/12/05 04:42:15;;;;;;;1.23;0.50;;;4.10;99.90;;;;;;4956389;28;20516;-77
2023/12/05 04:44:41;;;;;;;1.23;0.85;;;4.10;99.90;;;;;;4961442;28;20090;-77
2023/12/05 04:47:06;;;;;;;1.50;0.30;;;4.00;99.90;;;;;;4938729;28;20027;-76
2023/12/05 04:49:33;;;;;;;0.77;0.60;;;3.80;99.90;;;;;;4941357;29;20051;-75
2023/12/05 04:51:59;;;;;;;2.22;0.43;;;3.70;99.90;;;;;;4949050;29;20051;-75
2023/12/05 04:54:25;;;;;;;2.33;0.85;;;3.70;99.90;;;;;;4956617;28;20259;-75
2023/12/05 04:56:50;;;;;;;2.15;0.95;;;3.70;99.90;;;;;;4972967;28;20027;-77
2023/12/05 04:59:16;;;;;;;2.80;0.77;;;3.60;99.90;;;;;;4956056;28;20051;-77
2023/12/05 05:01:42;;;;;;;3.53;1.63;;;3.70;99.90;;;;;;4955702;28;20035;-77
2023/12/05 05:04:07;;;;;;;1.88;0.90;;;3.80;99.90;;;;;;4955829;28;20500;-77
2023/12/05 05:06:33;;;;;;;4.40;1.10;;;4.20;99.90;;;;;;4954377;28;20035;-77
2023/12/05 05:08:58;;;;;;;4.40;1.17;;;4.60;99.90;;;;;;4955665;28;20043;-76
2023/12/05 05:11:24;;;;;;;2.65;1.85;;;4.60;99.90;;;;;;4955554;28;20042;-77
2023/12/05 05:13:49;;;;;;;1.80;1.60;;;4.50;99.90;;;;;;4955556;28;20031;-77
2023/12/05 05:16:15;;;;;;;5.50;1.10;;;4.60;99.90;;;;;;4955818;28;20027;-77
2023/12/05 05:18:41;;;;;;;0.90;0.65;;;4.90;99.90;;;;;;4970594;28;20054;-77
2023/12/05 05:21:07;;;;;;;1.98;0.85;;;5.20;99.90;;;;;;4955691;28;20031;-78
2023/12/05 05:23:33;;;;;;;4.07;1.10;;;5.40;99.90;;;;;;4954221;28;20020;-77
2023/12/05 05:25:59;;;;;;;1.08;0.98;;;5.30;99.90;;;;;;4955523;28;20086;-78
2023/12/05 05:28:24;;;;;;;1.05;0.90;;;5.30;99.90;;;;;;4955704;28;20023;-77
2023/12/05 05:30:54;;;;;;;0.82;0.50;;;5.30;99.90;;;;;;4954270;28;20440;-78
2023/12/05 05:33:21;;;;;;;1.95;0.65;;;5.20;99.90;;;;;;4955844;28;20035;-78
2023/12/05 05:35:46;;;;;;;2.45;0.70;;;5.20;99.90;;;;;;4955783;28;20499;-77
2023/12/05 05:38:12;;;;;;;2.10;0.75;;;5.30;99.90;;;;;;4956246;28;20101;-76
2023/12/05 05:40:39;;;;;;;1.02;0.50;;;5.40;99.90;;;;;;4955395;28;20085;-77
2023/12/05 05:43:05;;;;;;;3.30;0.80;;;5.50;99.90;;;;;;4955525;28;20038;-77
2023/12/05 05:45:30;;;;;;;1.05;0.40;;;5.50;99.90;;;;;;4970312;28;20023;-77
2023/12/05 05:47:56;;;;;;;2.78;0.60;;;5.70;99.90;;;;;;4955617;28;20034;-78
2023/12/05 05:50:22;;;;;;;0.30;0.30;;;5.60;99.90;;;;;;4955955;28;20106;-77
2023/12/05 05:52:47;;;;;;;2.05;0.50;;;5.50;99.90;;;;;;4955324;28;20118;-76
2023/12/05 05:55:13;;;;;;;2.13;0.75;;;5.60;99.90;;;;;;4955593;28;20122;-77
2023/12/05 05:57:39;;;;;;;3.15;0.55;;;5.60;99.90;;;;;;4941799;28;20102;-75
2023/12/05 06:00:05;;;;;;;0.28;0.28;;;5.40;99.90;;;;;;4959329;28;20114;-76
2023/12/05 06:02:31;;;;;;;2.13;0.40;;;5.30;99.90;;;;;;4959663;28;20031;-76
2023/12/05 06:04:57;;;;;;;1.58;0.40;;;5.20;99.90;;;;;;4960554;28;20035;-77
2023/12/05 06:07:23;;;;;;;1.17;0.43;;;5.20;99.90;;;;;;4959024;28;20026;-77
2023/12/05 06:09:49;;;;;;;1.85;0.47;;;5.30;99.90;;;;;;4942271;29;20027;-79
2023/12/05 06:12:15;;;;;;;4.85;0.65;;;5.10;99.90;;;;;;4942999;28;20063;-77
2023/12/05 06:14:40;;;;;;;1.52;0.60;;;4.90;99.90;;;;;;4959281;28;20059;-80
2023/12/05 06:17:06;;;;;;;1.58;0.55;;;4.90;99.90;;;;;;4941777;28;20502;-77
2023/12/05 06:19:32;;;;;;;3.05;0.88;;;4.90;99.90;;;;;;4942009;29;20024;-77
2023/12/05 06:21:57;;;;;;;2.50;0.73;;;4.90;99.90;;;;;;4962012;28;20023;-79
2023/12/05 06:24:23;;;;;;;0.30;0.30;;;4.80;99.90;;;;;;4941679;29;20103;-76
2023/12/05 06:26:49;;;;;;;1.45;0.60;;;4.90;99.90;;;;;;4941871;29;20484;-77
2023/12/05 06:29:14;;;;;;;4.40;1.27;;;4.90;99.90;;;;;;4958630;28;20075;-77
2023/12/05 06:31:40;;;;;;;2.47;0.50;;;4.90;99.90;;;;;;4958840;28;20147;-78
2023/12/05 06:34:06;;;;;;;1.20;0.50;;;5.00;99.90;;;;;;4941474;28;20126;-79
2023/12/05 06:36:32;;;;;;;1.42;0.30;;;4.90;99.90;;;;;;4958547;29;20484;-79
2023/12/05 06:38:57;;;;;;;0.30;0.20;;;5.00;99.90;;;;;;4941156;29;20031;-79
2023/12/05 06:41:23;;;;;;;0.70;0.40;;;5.00;99.90;;;;;;4958846;28;20473;-78
2023/12/05 06:43:48;;;;;;;4.95;0.40;;;4.80;99.90;;;;;;4941518;29;20031;-77
2023/12/05 06:46:14;;;;;;;2.78;1.48;;;4.70;99.90;;;;;;4941268;28;20106;-78
2023/12/05 06:48:42;;;;;;;2.13;0.45;;;4.70;99.90;;;;;;4941351;28;20027;-80
2023/12/05 06:51:08;;;;;;;1.58;0.30;;;4.70;99.90;;;;;;4958238;28;20027;-79
2023/12/05 06:53:34;;;;;;;2.15;0.57;;;4.70;99.90;;;;;;4941334;28;20039;-77
2023/12/05 06:55:59;;;;;;;2.65;0.60;;;4.70;99.90;;;;;;4960029;28;20357;-79
2023/12/05 06:58:25;;;;;;;1.80;0.65;;;4.70;99.90;;;;;;4958549;28;20024;-79
2023/12/05 07:00:51;;;;;;;0.70;0.60;;;4.80;99.90;;;;;;4941405;28;20361;-79
2023/12/05 07:03:16;;;;;;;2.25;0.50;;;4.90;99.90;;;;;;4958283;28;20059;-79
2023/12/05 07:05:42;;;;;;;1.35;0.70;;;5.00;99.90;;;;;;4941369;28;20079;-79
2023/12/05 07:08:08;;;;;;;2.45;0.98;;;4.90;99.90;;;;;;4958525;28;20070;-81
2023/12/05 07:10:35;;;;;;;0.68;0.60;;;4.70;99.90;;;;;;4973100;28;20047;-81
2023/12/05 07:13:02;;;;;;;2.08;1.10;;;4.70;99.90;;;;;;4959666;29;20051;-79
2023/12/05 07:15:28;;;;;;;1.17;0.35;;;4.50;99.90;;;;;;4941426;29;20027;-78
2023/12/05 07:17:54;;;;;;;0.65;0.35;;;4.40;99.90;;;;;;4958098;28;20436;-79
2023/12/05 07:20:19;;;;;;;2.13;0.50;;;4.40;99.90;;;;;;4958253;28;20468;-79
2023/12/05 07:22:45;;;;;;;1.85;0.50;;;4.50;99.90;;;;;;4941397;29;20031;-81
2023/12/05 07:25:11;;;;;;;1.02;0.40;;;4.60;99.90;;;;;;4941154;29;20535;-79
2023/12/05 07:27:36;;;;;;;1.38;0.17;;;4.70;99.90;;;;;;4940556;29;20027;-80
2023/12/05 07:30:03;;;;;;;1.88;0.45;;;4.80;99.90;;;;;;4957549;28;20029;-80
2023/12/05 07:32:28;;;;;;;2.28;0.50;;;4.90;99.90;;;;;;4959402;28;20031;-79
2023/12/05 07:34:54;;;;;;;2.92;0.60;;;5.00;99.90;;;;;;4959069;28;20358;-78
2023/12/05 07:37:20;;;;;;;0.40;0.38;;;5.10;99.90;;;;;;4941173;29;20069;-79
2023/12/05 07:39:45;;;;;;;0.57;0.43;;;5.10;99.90;;;;;;4940924;29;20027;-80
2023/12/05 07:42:11;;;;;;;1.40;0.40;;;5.10;99.90;;;;;;4941962;29;20055;-79
2023/12/05 07:44:37;;;;;;;0.47;0.47;;;5.20;99.90;;;;;;4947845;29;20074;-80
2023/12/05 07:47:03;;;;;;;3.40;1.58;;;5.30;99.90;;;;;;4945027;28;20011;-82
2023/12/05 07:49:28;;;;;;;0.60;0.32;;;5.20;99.90;;;;;;4968193;28;20024;-81
2023/12/05 07:51:55;;;;;;;3.30;0.50;;;5.20;99.90;;;;;;4947911;28;20047;-80
2023/12/05 07:54:21;;;;;;;1.20;0.80;;;5.20;99.90;;;;;;4958014;28;20023;-79
2023/12/05 07:56:46;;;;;;;1.67;0.45;;;5.30;99.90;;;;;;4955692;28;20366;-78
2023/12/05 07:59:12;;;;;;;0.93;0.80;;;5.30;99.90;;;;;;4957180;28;20031;-79
2023/12/05 08:01:42;;;;;;;0.80;0.43;;;5.30;99.90;;;;;;4956053;28;20101;-80
2023/12/05 08:04:08;;;;;;;0.85;0.50;;;5.30;99.90;;;;;;4955570;28;20031;-79
2023/12/05 08:06:34;;;;;;;1.08;0.40;;;5.30;99.90;;;;;;4955027;28;20027;-79
2023/12/05 08:08:59;;;;;;;1.08;0.80;;;5.30;99.90;;;;;;4971468;28;20019;-79
2023/12/05 08:11:25;;;;;;;2.05;0.30;;;5.30;99.90;;;;;;4956819;28;20035;-79
2023/12/05 08:13:52;;;;;;;0.88;0.32;;;5.30;99.90;;;;;;4971122;28;20051;-78
2023/12/05 08:16:19;;;;;;;0.77;0.45;;;5.30;99.90;;;;;;4971424;28;20086;-80
2023/12/05 08:18:44;;;;;;;0.93;0.60;;;5.40;99.90;;;;;;4954601;28;20019;-79
2023/12/05 08:21:10;;;;;;;1.67;0.40;;;5.40;99.90;;;;;;4955272;28;20110;-78
2023/12/05 08:23:35;;;;;;;2.28;0.52;;;5.50;99.90;;;;;;4955947;28;20031;-79
2023/12/05 08:26:01;;;;;;;5.05;0.82;;;5.60;99.90;;;;;;4956379;28;20031;-79
2023/12/05 08:28:29;;;;;;;0.93;0.35;;;5.60;99.90;;;;;;4971049;28;20031;-78
2023/12/05 08:30:54;;;;;;;0.47;0.45;;;5.80;99.90;;;;;;4955563;28;20440;-79
2023/12/05 08:33:20;;;;;;;0.20;0.20;;;5.80;99.90;;;;;;4956301;28;20024;-79
2023/12/05 08:35:46;;;;;;;0.40;0.35;;;5.90;99.90;;;;;;4955043;28;20031;-78
2023/12/05 08:38:11;;;;;;;0.47;0.40;;;6.10;99.90;;;;;;4956133;28;20023;-76
2023/12/05 08:40:38;;;;;;;6.60;0.85;;;6.20;99.90;;;;;;4954765;28;20027;-78
2023/12/05 08:43:04;;;;;;;1.63;0.40;;;6.20;99.90;;;;;;4955812;28;20034;-79
2023/12/05 08:45:29;;;;;;;0.30;0.30;;;6.20;99.90;;;;;;4956102;28;20031;-79
2023/12/05 08:47:55;;;;;;;0.88;0.55;;;6.30;99.90;;;;;;4954619;28;20030;-79
2023/12/05 08:50:21;;;;;;;1.20;0.30;;;6.50;99.90;;;;;;4956067;28;20468;-79
2023/12/05 08:52:47;;;;;;;1.05;0.80;;;6.80;99.90;;;;;;4954713;29;20059;-79
2023/12/05 08:55:13;;;;;;;2.15;0.40;;;6.90;99.90;;;;;;4970621;28;20038;-79
2023/12/05 08:57:39;;;;;;;2.13;0.40;;;7.10;99.90;;;;;;4938676;29;20480;-76
2023/12/05 09:00:05;;;;;;;2.08;0.30;;;7.20;99.90;;;;;;4955886;28;20036;-76
2023/12/05 09:02:31;;;;;;;1.05;0.77;;;7.30;99.90;;;;;;4955108;28;20027;-76
2023/12/05 09:04:57;;;;;;;1.48;0.85;;;7.10;99.90;;;;;;4954401;28;20034;-76
2023/12/05 09:07:23;;;;;;;1.60;0.50;;;6.90;99.90;;;;;;4955595;28;20392;-76
2023/12/05 09:09:49;;;;;;;2.88;0.43;;;6.80;99.90;;;;;;4954660;28;20055;-76
2023/12/05 09:12:15;;;;;;;1.15;0.40;;;6.70;99.90;;;;;;4955186;28;20078;-78
2023/12/05 09:14:42;;;;;;;4.78;1.17;;;6.60;99.90;;;;;;4955842;28;20070;-78
2023/12/05 09:17:09;;;;;;;0.77;0.30;;;6.50;99.90;;;;;;4970653;28;20511;-77
2023/12/05 09:19:35;;;;;;;2.30;0.65;;;6.30;99.90;;;;;;4955743;28;20531;-78
2023/12/05 09:22:02;;;;;;;0.63;0.50;;;6.10;99.90;;;;;;4954890;28;20071;-78
2023/12/05 09:24:28;;;;;;;0.93;0.50;;;5.90;99.90;;;;;;4954392;28;20063;-78
2023/12/05 09:26:54;;;;;;;0.40;0.22;;;5.70;99.90;;;;;;4955796;28;20038;-78
2023/12/05 09:29:20;;;;;;;0.80;0.80;;;5.50;99.90;;;;;;4955906;28;20031;-78
2023/12/05 09:31:46;;;;;;;0.82;0.50;;;5.40;99.90;;;;;;4959376;28;20384;-78
2023/12/05 09:34:12;;;;;;;3.72;0.40;;;5.40;99.90;;;;;;4959842;28;20031;-78
2023/12/05 09:36:37;;;;;;;3.67;0.85;;;5.40;99.90;;;;;;4958313;28;20038;-77
2023/12/05 09:39:04;;;;;;;5.05;1.98;;;5.40;99.90;;;;;;4959526;28;20535;-78
2023/12/05 09:41:30;;;;;;;5.30;2.10;;;5.40;99.90;;;;;;4958312;28;20118;-78
2023/12/05 09:44:00;;;;;;;8.60;1.73;;;5.40;99.90;;;;;;4958565;28;20114;-78
2023/12/05 09:46:28;;;;;;;3.65;1.27;;;5.50;99.90;;;;;;4959424;28;20098;-78
2023/12/05 09:48:59;;;;;;;3.03;1.25;;;5.50;99.90;;;;;;4959631;28;20023;-78
2023/12/05 09:51:25;;;;;;;1.98;1.23;;;5.60;99.90;;;;;;4958963;28;20043;-78
2023/12/05 09:53:55;;;;;;;7.28;2.00;;;5.70;99.90;;;;;;4941503;28;20141;-78
2023/12/05 09:56:22;;;;;;;3.30;1.42;;;5.80;99.90;;;;;;4958769;28;20028;-78
2023/12/05 09:58:48;;;;;;;7.45;1.98;;;5.80;99.90;;;;;;4941657;28;20550;-78
2023/12/05 10:01:17;;;;;;;7.85;2.50;;;5.90;99.90;;;;;;4941565;29;20135;-78
2023/12/05 10:03:58;;;;;;;4.10;2.13;;;5.90;99.90;;;;;;4958938;28;20031;-79
2023/12/05 10:06:27;;;;;;;4.97;1.75;;;5.80;99.90;;;;;;4958627;28;20028;-78
2023/12/05 10:08:54;;;;;;;1.90;1.30;;;5.90;99.90;;;;;;4957453;28;20059;-78
2023/12/05 10:11:23;;;;;;;3.60;1.30;;;5.90;99.90;;;;;;4941422;28;20030;-77
2023/12/05 10:13:49;;;;;;;1.15;0.30;;;6.00;99.90;;;;;;4941500;29;20031;-77
2023/12/05 10:16:16;;;;;;;2.97;0.93;;;6.10;99.90;;;;;;4958401;28;20163;-78
2023/12/05 10:18:44;;;;;;;0.77;0.60;;;6.20;99.90;;;;;;4941354;29;20023;-78
2023/12/05 10:21:10;;;;;;;0.70;0.60;;;6.40;99.90;;;;;;4941473;29;20370;-78
2023/12/05 10:23:36;;;;;;;0.43;0.38;;;6.50;99.90;;;;;;4941201;29;20034;-78
2023/12/05 10:26:03;;;;;;;4.55;1.50;;;6.60;99.90;;;;;;4958553;28;20027;-78
2023/12/05 10:28:28;;;;;;;0.40;0.40;;;6.70;99.90;;;;;;4958376;28;20074;-78
2023/12/05 10:30:55;;;;;;;1.20;0.50;;;6.80;99.90;;;;;;4958073;28;20027;-78
2023/12/05 10:33:21;;;;;;;2.08;0.65;;;6.80;99.90;;;;;;4958146;28;20424;-78
2023/12/05 10:35:48;;;;;;;3.05;0.45;;;6.80;99.90;;;;;;4958438;28;20472;-78
2023/12/05 10:38:17;;;;;;;0.30;0.30;;;6.80;99.90;;;;;;4958215;28;20492;-77
2023/12/05 10:40:54;;;;;;;2.33;0.47;;;6.70;99.90;;;;;;4956945;28;20039;-78
2023/12/05 10:43:21;;;;;;;1.58;0.65;;;6.80;99.90;;;;;;4940211;29;20396;-78
2023/12/05 10:45:47;;;;;;;1.90;1.00;;;6.80;99.90;;;;;;4958295;28;20102;-77
2023/12/05 10:48:16;;;;;;;5.68;0.95;;;6.80;99.90;;;;;;4957868;28;20093;-78
2023/12/05 10:50:43;;;;;;;1.33;0.85;;;6.80;99.90;;;;;;4957853;28;20366;-78
2023/12/05 10:53:09;;;;;;;1.75;0.50;;;6.70;99.90;;;;;;4958305;28;20105;-80
2023/12/05 10:55:35;;;;;;;1.20;0.50;;;6.50;99.90;;;;;;4942417;28;20094;-79
2023/12/05 10:58:02;;;;;;;1.17;0.98;;;6.50;99.90;;;;;;4942786;28;20126;-78
2023/12/05 11:00:30;;;;;;;6.22;0.95;;;6.50;99.90;;;;;;4940763;29;20034;-78
2023/12/05 11:02:56;;;;;;;1.58;0.93;;;6.50;99.90;;;;;;4940669;29;20034;-78
2023/12/05 11:05:23;;;;;;;3.08;0.60;;;6.40;99.90;;;;;;4940693;29;20027;-78
2023/12/05 11:07:51;;;;;;;2.92;0.77;;;6.50;99.90;;;;;;4958336;28;20019;-77
2023/12/05 11:10:17;;;;;;;3.42;0.60;;;6.50;99.90;;;;;;4941396;29;20034;-78
2023/12/05 11:12:49;;;;;;;5.75;1.63;;;6.60;99.90;;;;;;4957740;28;20043;-79
2023/12/05 11:15:20;;;;;;;2.83;1.95;;;6.60;99.90;;;;;;4956491;28;20027;-79
2023/12/05 11:17:53;;;;;;;1.75;0.93;;;6.50;99.90;;;;;;4940393;29;20031;-78
2023/12/05 11:20:40;;;;;;;2.05;0.60;;;6.60;99.90;;;;;;4936103;28;20067;-78
2023/12/05 11:23:28;;;;;;;2.42;0.93;;;6.60;99.90;;;;;;4940248;28;20070;-79
2023/12/05 11:26:13;;;;;;;6.35;0.98;;;6.60;99.90;;;;;;4957291;28;20102;-79
2023/12/05 11:29:05;;;;;;;11.20;1.60;;;6.70;99.90;;;;;;4939752;29;20126;-78
2023/12/05 11:31:45;;;;;;;6.38;1.40;;;6.70;99.90;;;;;;4957183;28;20043;-78
2023/12/05 11:34:37;;;;;;;2.25;1.10;;;6.80;99.40;;;;;;4940579;29;20020;-78
2023/12/05 11:37:34;;;;;;;3.80;1.10;;;6.80;98.90;;;;;;4940095;29;20024;-78
2023/12/05 11:40:00;;;;;;;3.20;0.90;;;6.90;98.50;;;;;;4957269;28;20091;-78
2023/12/05 11:42:26;;;;;;;3.22;1.05;;;6.90;95.20;;;;;;4939808;29;20121;-78
2023/12/05 11:44:52;;;;;;;1.25;0.30;;;7.00;96.30;;;;;;4939816;29;20055;-79
2023/12/05 11:47:27;;;;;;;2.35;0.85;;;6.90;95.00;;;;;;4939374;28;20028;-78
2023/12/05 11:49:55;;;;;;;0.60;0.50;;;6.90;94.40;;;;;;4957067;29;20102;-78
2023/12/05 11:52:25;;;;;;;3.10;2.22;;;7.00;93.70;;;;;;4956593;29;20134;-78
2023/12/05 11:54:52;;;;;;;1.17;0.47;;;7.20;93.70;;;;;;4939606;29;20028;-78
2023/12/05 11:57:23;;;;;;;1.75;0.40;;;7.30;91.50;;;;;;4956845;28;20501;-78
2023/12/05 11:59:52;;;;;;;3.50;0.70;;;7.40;90.40;;;;;;4939556;29;20114;-78
2023/12/05 12:02:39;;;;;;;2.75;0.75;;;7.50;92.00;;;;;;4939556;29;20063;-78
2023/12/05 12:05:10;;;;;;;3.17;0.50;;;7.50;91.10;;;;;;4939177;28;20039;-76
2023/12/05 12:08:08;;;;;;;0.73;0.60;;;7.70;91.70;;;;;;4939284;29;20027;-76
2023/12/05 12:10:34;;;;;;;1.98;0.75;;;8.00;90.10;;;;;;4908171;29;20477;-76
2023/12/05 12:13:00;;;;;;;6.80;0.90;;;8.20;83.70;;;;;;4939427;28;20035;-76
2023/12/05 12:15:25;;;;;;;2.72;0.40;;;8.20;79.60;;;;;;4939492;29;20037;-76
2023/12/05 12:17:51;;;;;;;0.55;0.55;;;8.30;79.90;;;;;;4939368;29;20023;-76
2023/12/05 12:20:18;;;;;;;2.17;0.45;;;8.50;78.00;;;;;;4956345;28;20024;-78
2023/12/05 12:22:48;;;;;;;4.93;0.65;;;8.30;83.60;;;;;;4956360;28;20393;-78
2023/12/05 12:25:14;;;;;;;0.90;0.30;;;8.20;82.40;;;;;;4956587;28;20520;-76
2023/12/05 12:27:44;;;;;;;0.88;0.30;;;8.20;79.60;;;;;;4939440;29;20063;-76
2023/12/05 12:30:16;;;;;;;4.93;2.17;;;8.20;80.10;;;;;;4939840;29;20123;-76
2023/12/05 12:32:52;;;;;;;1.08;0.93;;;8.30;78.20;;;;;;4956882;28;20074;-76
2023/12/05 12:35:22;;;;;;;1.10;0.30;;;8.30;79.20;;;;;;4956992;28;20030;-76
2023/12/05 12:37:51;;;;;;;0.68;0.30;;;8.20;75.90;;;;;;4956396;28;20023;-78
2023/12/05 12:40:18;;;;;;;0.40;0.38;;;8.10;76.80;;;;;;4938660;28;20094;-78
2023/12/05 12:42:49;;;;;;;0.85;0.57;;;7.90;77.40;;;;;;4956161;28;20027;-79
2023/12/05 12:45:15;;;;;;;3.10;1.13;;;7.70;77.20;;;;;;4956122;28;20023;-79
2023/12/05 12:47:41;;;;;;;2.53;1.55;;;7.80;78.40;;;;;;4956035;28;20030;-79
2023/12/05 12:50:08;;;;;;;0.65;0.50;;;7.70;78.40;;;;;;4956067;28;20114;-78
2023/12/05 12:52:34;;;;;;;3.15;0.60;;;7.60;77.10;;;;;;4938513;29;20055;-79
2023/12/05 12:54:59;;;;;;;1.95;0.70;;;7.40;80.50;;;;;;4956343;28;20027;-79